»·PEaware :: N5600T KLLR-KMCC

N5600T :: KLLR-KMCC

FLIGHT INFORMATION

Flight Status: Arrived
Operator: Privately registered:
United States
More flights under this callsign
Pilot: Christian A. (580)
Aircraft: DEHAVILLAND DH-6 TWIN OTTER
(DHC6)
More flights by this aircraft type
Origin: KLLR
Destination: KMCC McClellan
United States
More flights between these airports :: More routes between these airports
Route: DCT VFR
File this flight plan on PilotEdge
Remarks:
Altitude:
(Current/Filed)
5,500ft
Speed:
(Current/Filed)
155kts
Departed: 18-Nov-17 04:23 PM
Arrived: 18-Nov-17 05:14 PM
Distance/Time
Traveled:
Not Available
Distance/Time
To Go:
Arrived

Flight Plot

Page will automatically refresh every two minutes.

Flight plan parsing failed; only flown route is shown


Map Options




Map Legend


Flown Route
Filed Route
Departure Airport
Arrival Airport
Navaid (VOR, NDB)
Fix

Horizontal Profiles

Position Reports

Time Latitude Longitude Heading Altitude Ground
Speed
18-Nov-17 16:24 39.262989 -123.752756 308 559ft 0kts
18-Nov-17 16:25 39.262989 -123.752757 308 559ft 0kts
18-Nov-17 16:26 39.262990 -123.752758 308 559ft 0kts
18-Nov-17 16:27 39.264398 -123.755513 309 559ft 26kts
18-Nov-17 16:28 39.265065 -123.758660 127 559ft 62kts
18-Nov-17 16:29 39.254453 -123.728153 94 2424ft 100kts
18-Nov-17 16:30 39.248205 -123.692580 111 4726ft 101kts
18-Nov-17 16:31 39.238741 -123.653916 112 5523ft 138kts
18-Nov-17 16:32 39.226269 -123.603831 111 5498ft 149kts
18-Nov-17 16:33 39.213941 -123.552739 108 5500ft 149kts
18-Nov-17 16:34 39.201974 -123.501269 108 5500ft 150kts
18-Nov-17 16:35 39.189459 -123.449749 109 5497ft 150kts
18-Nov-17 16:36 39.176909 -123.398440 109 5496ft 150kts
18-Nov-17 16:37 39.164350 -123.347124 109 5495ft 150kts
18-Nov-17 16:38 39.151765 -123.295694 109 5496ft 150kts
18-Nov-17 16:39 39.139140 -123.244508 109 5494ft 150kts
18-Nov-17 16:40 39.126527 -123.193387 109 5489ft 150kts
18-Nov-17 16:41 39.113870 -123.142171 109 5494ft 149kts
18-Nov-17 16:42 39.101220 -123.091090 109 5496ft 149kts
18-Nov-17 16:43 39.088506 -123.039793 109 5494ft 150kts
18-Nov-17 16:44 39.075781 -122.988646 109 5494ft 150kts
18-Nov-17 16:45 39.063039 -122.937524 109 5495ft 150kts
18-Nov-17 16:46 39.050230 -122.886227 110 5494ft 150kts
18-Nov-17 16:47 39.037460 -122.835197 110 5500ft 150kts
18-Nov-17 16:48 39.024707 -122.784347 110 5500ft 150kts
18-Nov-17 16:49 39.011799 -122.732981 110 5500ft 150kts
18-Nov-17 16:50 38.998954 -122.681976 110 5500ft 150kts
18-Nov-17 16:51 38.986040 -122.630801 110 5499ft 150kts
18-Nov-17 16:52 38.973121 -122.579715 110 5499ft 150kts
18-Nov-17 16:53 38.960195 -122.528620 110 5500ft 150kts
18-Nov-17 16:54 38.947286 -122.477458 110 5500ft 150kts
18-Nov-17 16:55 38.934390 -122.426530 110 5502ft 150kts
18-Nov-17 16:56 38.921312 -122.375457 110 5503ft 150kts
18-Nov-17 16:57 38.908308 -122.324540 110 5502ft 150kts
18-Nov-17 16:58 38.895320 -122.273610 110 5505ft 150kts
18-Nov-17 16:59 38.882197 -122.222574 110 5514ft 150kts
18-Nov-17 17:00 38.869136 -122.171626 110 5513ft 150kts
18-Nov-17 17:01 38.855977 -122.120743 110 5514ft 150kts
18-Nov-17 17:02 38.842758 -122.069669 111 5512ft 150kts
18-Nov-17 17:03 38.834997 -122.026266 101 5281ft 143kts
18-Nov-17 17:04 38.827040 -121.970049 101 3447ft 134kts
18-Nov-17 17:05 38.819623 -121.923702 97 1887ft 131kts
18-Nov-17 17:06 38.814612 -121.884786 97 1499ft 138kts
18-Nov-17 17:07 38.811073 -121.824371 89 1495ft 149kts
18-Nov-17 17:08 38.810069 -121.780068 89 1495ft 149kts
18-Nov-17 17:09 38.809017 -121.726828 89 1496ft 149kts
18-Nov-17 17:10 38.806882 -121.665344 94 1498ft 147kts
18-Nov-17 17:11 38.803223 -121.621950 94 1497ft 147kts
18-Nov-17 17:12 38.798793 -121.569888 95 1499ft 147kts
18-Nov-17 17:13 38.782155 -121.512332 121 1502ft 148kts
18-Nov-17 17:14 38.755506 -121.484114 144 1505ft 150kts
18-Nov-17 17:15 38.720205 -121.455144 150 1507ft 152kts
18-Nov-17 17:16 38.682934 -121.433301 175 1522ft 144kts
18-Nov-17 17:17 38.649875 -121.432066 176 1267ft 101kts
18-Nov-17 17:18 38.641516 -121.408008 82 582ft 80kts
18-Nov-17 17:19 38.657362 -121.400617 0 84ft 40kts
18-Nov-17 17:20 38.662074 -121.397071 321 84ft 7kts
18-Nov-17 17:21 38.662180 -121.397162 326 84ft 0kts
18-Nov-17 17:22 38.662180 -121.397162 326 84ft 0kts
18-Nov-17 17:23 38.662180 -121.397162 326 84ft 0kts
18-Nov-17 17:24 38.662180 -121.397162 326 84ft 0kts
18-Nov-17 17:25 38.662180 -121.397162 326 84ft 0kts
18-Nov-17 17:26 38.662180 -121.397162 326 84ft 0kts
18-Nov-17 17:27 38.662180 -121.397162 326 84ft 0kts

Navigation Log

Ident Type
Flight plan parsing failed, navigation log unavailable